Meteo Giornale » Osservazioni meteo Stati Uniti (USA) » Deering
ore: 14:53 - Osservazioni Meteo Deering
Lat. 66° 5' N Lon. 162° 45' W Alt. 5 metri s.l.m.
7 °C
Coperto
Temp. 24 Ore
-2 °C
7 °C
Ovest/Sud-Ovest
22.2 Km/h
Dew point 4 °C
Umidità 81 %
Visibilità 10 Km
Il sole sorge alle ore 07:24
Il sole tramonta alle ore 22:17
| Data e Ora | Cielo e Fenomeni | T °C | DP °C | Um. % | Pres. hPa | Vis. km | Vento km/h | |
|---|---|---|---|---|---|---|---|---|
| Oggi h: 14:53 | Coperto | 7 | 4 | 81 | 1013 | 10 | O/SO 22.2 | |
| Oggi h: 13:53 | Coperto | 7 | 4 | 81 | 1013 | 10 | O/SO 27.8 | |
| Oggi h: 13:51 | Coperto | 7 | 4 | 81 | 1013 | 10 | O/SO 24 | |
| Oggi h: 13:29 | Coperto | 7 | 4 | 81 | 1013 | 10 | O/SO 25.9 | |
| Oggi h: 12:53 | Coperto | 7 | 4 | 81 | 1012 | 10 | O/SO 25.9 | |
| Oggi h: 12:02 | Coperto | 6 | 4 | 86 | 1012 | 10 | O/SO 24 | |
| Oggi h: 11:53 | Coperto | 6 | 4 | 86 | 1012 | 10 | O/SO 24 | |
| Oggi h: 11:46 | Coperto | 6 | 4 | 86 | 1012 | 10 | SO 22.2 | |
| Oggi h: 11:31 | Coperto | 6 | 4 | 86 | 1012 | 10 | O/SO 18.5 | |
| Oggi h: 10:53 | Coperto | 5 | 4 | 93 | 1012 | 10 | S/SO 14.8 | |
| Oggi h: 10:07 | Foschia | 3 | 3 | 100 | 1012 | 5 | S 11.1 | |
| Oggi h: 09:56 | Foschia | 3 | 2 | 93 | 1012 | 5 | S/SO 16.7 | |
| Oggi h: 09:53 | Foschia | 3 | 2 | 93 | 1012 | 5 | S/SO 16.7 | |
| Oggi h: 09:46 | Molto Nuvoloso | 3 | 1 | 86 | 1012 | 14 | S/SO 14.8 | |
| Oggi h: 08:53 | Sereno | 1 | -1 | 86 | 1012 | 10 | S/SO 14.8 | |
| Oggi h: 07:53 | Sereno | -2 | -3 | 92 | 1012 | 10 | S/SO 14.8 | |
| Oggi h: 06:53 | Sereno | -2 | -3 | 92 | 1012 | 10 | S/SO 14.8 | |
| Oggi h: 05:53 | Sereno | -2 | -3 | 92 | 1012 | 10 | S/SO 14.8 | |
| Oggi h: 04:53 | Sereno | -2 | -3 | 92 | 1011 | 10 | S 16.7 | |
| Oggi h: 03:53 | Poco Nuvoloso | -2 | -2 | 100 | 1011 | 10 | S/SO 14.8 | |
| Oggi h: 02:53 | Nuvoloso | 0 | -1 | 92 | 1011 | 10 | S/SO 13 | |
| Oggi h: 01:53 | Molto Nuvoloso | 1 | 0 | 93 | 1010 | 10 | O/SO 16.7 | |
| Oggi h: 01:24 | Nuvoloso | 1 | 0 | 93 | 1010 | 10 | O/SO 16.7 | |
| Oggi h: 01:11 | Molto Nuvoloso | 2 | 1 | 93 | 1010 | 10 | O/SO 16.7 | |
| Oggi h: 00:53 | Coperto | 2 | 1 | 93 | 1010 | 10 | SO 22.2 | |
| Oggi h: 00:46 | Coperto | 2 | 1 | 93 | 1010 | 10 | O/SO 18.5 | |
| Ieri h: 23:53 | Coperto | 2 | 1 | 93 | 1009 | 10 | O/SO 14.8 | |
| Ieri h: 22:53 | Molto Nuvoloso | 1 | 0 | 93 | 1008 | 10 | S/SO 11.1 | |
| Ieri h: 22:49 | Molto Nuvoloso | 2 | 0 | 86 | 1008 | 10 | S/SO 9.3 | |
| Ieri h: 22:08 | Nuvoloso | 3 | 1 | 86 | 1007 | 10 | O 11.1 | |
| Ieri h: 21:53 | Molto Nuvoloso | 4 | 1 | 80 | 1007 | 10 | O/NO 13 | |
| Ieri h: 21:37 | Molto Nuvoloso | 4 | 1 | 80 | 1007 | 10 | O 13 | |
| Ieri h: 21:26 | Nuvoloso | 4 | 1 | 80 | 1007 | 10 | O 13 | |
| Ieri h: 20:53 | Molto Nuvoloso | 4 | 1 | 80 | 1007 | 10 | O 14.8 | |
| Ieri h: 20:32 | Molto Nuvoloso | 5 | 1 | 75 | 1006 | 10 | O 16.7 | |
| Ieri h: 19:53 | Poco Nuvoloso | 5 | 1 | 75 | 1006 | 10 | O 18.5 | |
| Ieri h: 19:40 | Nuvoloso | 5 | 1 | 75 | 1006 | 10 | O 22.2 | |
| Ieri h: 19:21 | Molto Nuvoloso | 6 | 1 | 70 | 1006 | 10 | O 18.5 | |
| Ieri h: 18:53 | Nuvoloso | 4 | 1 | 80 | 1005 | 10 | O 22.2 | |
| Ieri h: 18:35 | Pioggia | 4 | 2 | 86 | 1005 | 10 | O 20.3 | |
| Ieri h: 17:53 | Pioggia | 4 | 2 | 86 | 1005 | 10 | O 18.5 | |
| Ieri h: 17:26 | Coperto | 4 | 2 | 86 | 1005 | 10 | O/SO 16.7 | |
| Ieri h: 17:11 | Coperto | 5 | 2 | 80 | 1005 | 10 | O 14.8 | |
| Ieri h: 16:53 | Coperto | 4 | 2 | 86 | 1005 | 10 | O/SO 16.7 | |
| Ieri h: 16:48 | Coperto | 4 | 2 | 86 | 1005 | 10 | O 14.8 | |
| Ieri h: 16:10 | Coperto | 4 | 3 | 93 | 1005 | 10 | O/SO 20.3 | |
| Ieri h: 15:53 | Coperto | 4 | 3 | 93 | 1005 | 10 | O 25.9 | |



